sensor_id;sensor_type;location;lat;lon;timestamp;temperature;humidity
11474;DHT22;5793;52.238;13.438;2022-11-15T00:00:46;2.80;99.90
11474;DHT22;5793;52.238;13.438;2022-11-15T00:03:14;2.90;99.90
11474;DHT22;5793;52.238;13.438;2022-11-15T00:05:42;2.80;99.90
11474;DHT22;5793;52.238;13.438;2022-11-15T00:08:10;2.80;99.90
11474;DHT22;5793;52.238;13.438;2022-11-15T00:10:39;2.80;99.90
11474;DHT22;5793;52.238;13.438;2022-11-15T00:13:08;2.80;99.90
11474;DHT22;5793;52.238;13.438;2022-11-15T00:15:37;2.80;99.90
11474;DHT22;5793;52.238;13.438;2022-11-15T00:18:06;2.90;99.90
11474;DHT22;5793;52.238;13.438;2022-11-15T00:20:34;2.90;99.90
11474;DHT22;5793;52.238;13.438;2022-11-15T00:23:03;2.90;99.90
11474;DHT22;5793;52.238;13.438;2022-11-15T00:25:31;2.90;99.90
11474;DHT22;5793;52.238;13.438;2022-11-15T00:28:00;2.90;99.90
11474;DHT22;5793;52.238;13.438;2022-11-15T00:30:28;2.90;99.90
11474;DHT22;5793;52.238;13.438;2022-11-15T00:32:56;2.90;99.90
11474;DHT22;5793;52.238;13.438;2022-11-15T00:35:24;3.00;99.90
11474;DHT22;5793;52.238;13.438;2022-11-15T00:37:52;3.00;99.90
11474;DHT22;5793;52.238;13.438;2022-11-15T00:40:20;2.90;99.90
11474;DHT22;5793;52.238;13.438;2022-11-15T00:42:48;2.90;99.90
11474;DHT22;5793;52.238;13.438;2022-11-15T00:45:17;2.90;99.90
11474;DHT22;5793;52.238;13.438;2022-11-15T00:47:45;2.90;99.90
11474;DHT22;5793;52.238;13.438;2022-11-15T00:50:13;2.90;99.90
11474;DHT22;5793;52.238;13.438;2022-11-15T00:52:41;2.90;99.90
11474;DHT22;5793;52.238;13.438;2022-11-15T00:55:09;2.80;99.90
11474;DHT22;5793;52.238;13.438;2022-11-15T00:57:40;2.80;99.90
11474;DHT22;5793;52.238;13.438;2022-11-15T01:00:09;2.90;99.90
11474;DHT22;5793;52.238;13.438;2022-11-15T01:02:39;2.80;99.90
11474;DHT22;5793;52.238;13.438;2022-11-15T01:05:07;2.90;99.90
11474;DHT22;5793;52.238;13.438;2022-11-15T01:07:35;2.90;99.90
11474;DHT22;5793;52.238;13.438;2022-11-15T01:10:04;2.90;99.90
11474;DHT22;5793;52.238;13.438;2022-11-15T01:12:32;2.70;99.90
11474;DHT22;5793;52.238;13.438;2022-11-15T01:15:00;2.70;99.90
11474;DHT22;5793;52.238;13.438;2022-11-15T01:17:29;2.70;99.90
11474;DHT22;5793;52.238;13.438;2022-11-15T01:19:58;2.70;99.90
11474;DHT22;5793;52.238;13.438;2022-11-15T01:22:26;2.80;99.90
11474;DHT22;5793;52.238;13.438;2022-11-15T01:24:54;2.80;99.90
11474;DHT22;5793;52.238;13.438;2022-11-15T01:27:22;2.90;99.90
11474;DHT22;5793;52.238;13.438;2022-11-15T01:29:50;2.90;99.90
11474;DHT22;5793;52.238;13.438;2022-11-15T01:32:17;3.00;99.90
11474;DHT22;5793;52.238;13.438;2022-11-15T01:34:45;3.10;99.90
11474;DHT22;5793;52.238;13.438;2022-11-15T01:37:14;3.30;99.90
11474;DHT22;5793;52.238;13.438;2022-11-15T01:39:42;3.40;99.90
11474;DHT22;5793;52.238;13.438;2022-11-15T01:42:12;3.50;99.90
11474;DHT22;5793;52.238;13.438;2022-11-15T01:44:42;3.50;99.90
11474;DHT22;5793;52.238;13.438;2022-11-15T01:47:14;3.50;99.90
11474;DHT22;5793;52.238;13.438;2022-11-15T01:49:49;3.60;99.90
11474;DHT22;5793;52.238;13.438;2022-11-15T01:52:21;3.80;99.90
11474;DHT22;5793;52.238;13.438;2022-11-15T01:54:54;3.80;99.90
11474;DHT22;5793;52.238;13.438;2022-11-15T01:57:23;3.90;99.90
11474;DHT22;5793;52.238;13.438;2022-11-15T01:59:51;4.00;99.90
11474;DHT22;5793;52.238;13.438;2022-11-15T02:02:19;4.00;99.90
11474;DHT22;5793;52.238;13.438;2022-11-15T02:04:47;4.00;99.90
11474;DHT22;5793;52.238;13.438;2022-11-15T02:07:17;4.00;99.90
11474;DHT22;5793;52.238;13.438;2022-11-15T02:09:47;4.10;99.90
11474;DHT22;5793;52.238;13.438;2022-11-15T02:12:18;4.20;99.90
11474;DHT22;5793;52.238;13.438;2022-11-15T02:14:49;4.30;99.90
11474;DHT22;5793;52.238;13.438;2022-11-15T02:17:38;4.40;99.90
11474;DHT22;5793;52.238;13.438;2022-11-15T02:20:39;4.40;99.90
11474;DHT22;5793;52.238;13.438;2022-11-15T02:26:29;4.50;99.90
11474;DHT22;5793;52.238;13.438;2022-11-15T02:29:05;4.50;99.90
11474;DHT22;5793;52.238;13.438;2022-11-15T02:31:41;4.50;99.90
11474;DHT22;5793;52.238;13.438;2022-11-15T02:34:18;4.60;99.90
11474;DHT22;5793;52.238;13.438;2022-11-15T02:36:58;4.60;99.90
11474;DHT22;5793;52.238;13.438;2022-11-15T02:39:31;4.60;99.90
11474;DHT22;5793;52.238;13.438;2022-11-15T02:42:02;4.80;99.90
11474;DHT22;5793;52.238;13.438;2022-11-15T02:44:35;4.80;99.90
11474;DHT22;5793;52.238;13.438;2022-11-15T02:47:07;4.80;99.90
11474;DHT22;5793;52.238;13.438;2022-11-15T02:49:45;4.80;99.90
11474;DHT22;5793;52.238;13.438;2022-11-15T02:52:15;4.80;99.90
11474;DHT22;5793;52.238;13.438;2022-11-15T02:54:53;4.80;99.90
11474;DHT22;5793;52.238;13.438;2022-11-15T02:57:32;4.80;99.90
11474;DHT22;5793;52.238;13.438;2022-11-15T03:00:06;4.80;99.90
11474;DHT22;5793;52.238;13.438;2022-11-15T03:02:45;4.80;99.90
11474;DHT22;5793;52.238;13.438;2022-11-15T03:05:20;4.80;99.90
11474;DHT22;5793;52.238;13.438;2022-11-15T03:07:54;4.70;99.90
11474;DHT22;5793;52.238;13.438;2022-11-15T03:10:34;4.70;99.90
11474;DHT22;5793;52.238;13.438;2022-11-15T03:13:11;4.70;99.90
11474;DHT22;5793;52.238;13.438;2022-11-15T03:15:48;4.60;99.90
11474;DHT22;5793;52.238;13.438;2022-11-15T03:18:25;4.60;99.90
11474;DHT22;5793;52.238;13.438;2022-11-15T03:20:58;4.60;99.90
11474;DHT22;5793;52.238;13.438;2022-11-15T03:23:29;4.60;99.90
11474;DHT22;5793;52.238;13.438;2022-11-15T03:25:59;4.40;99.90
11474;DHT22;5793;52.238;13.438;2022-11-15T03:28:31;4.40;99.90
11474;DHT22;5793;52.238;13.438;2022-11-15T03:31:01;4.50;99.90
11474;DHT22;5793;52.238;13.438;2022-11-15T03:33:54;4.40;99.90
11474;DHT22;5793;52.238;13.438;2022-11-15T03:36:25;4.40;99.90
11474;DHT22;5793;52.238;13.438;2022-11-15T03:38:54;4.30;99.90
11474;DHT22;5793;52.238;13.438;2022-11-15T03:41:30;4.30;99.90
11474;DHT22;5793;52.238;13.438;2022-11-15T03:44:10;4.20;99.90
11474;DHT22;5793;52.238;13.438;2022-11-15T03:46:42;4.10;99.90
11474;DHT22;5793;52.238;13.438;2022-11-15T03:49:19;4.00;99.90
11474;DHT22;5793;52.238;13.438;2022-11-15T03:51:49;3.90;99.90
11474;DHT22;5793;52.238;13.438;2022-11-15T03:54:17;3.90;99.90
11474;DHT22;5793;52.238;13.438;2022-11-15T03:56:44;3.80;99.90
11474;DHT22;5793;52.238;13.438;2022-11-15T03:59:12;3.70;99.90
11474;DHT22;5793;52.238;13.438;2022-11-15T04:01:40;3.70;99.90
11474;DHT22;5793;52.238;13.438;2022-11-15T04:04:07;3.60;99.90
11474;DHT22;5793;52.238;13.438;2022-11-15T04:06:37;3.50;99.90
11474;DHT22;5793;52.238;13.438;2022-11-15T04:09:05;3.50;99.90
11474;DHT22;5793;52.238;13.438;2022-11-15T04:11:33;3.50;99.90
11474;DHT22;5793;52.238;13.438;2022-11-15T04:14:01;3.50;99.90
11474;DHT22;5793;52.238;13.438;2022-11-15T04:16:28;3.50;99.90
11474;DHT22;5793;52.238;13.438;2022-11-15T04:18:56;3.40;99.90
11474;DHT22;5793;52.238;13.438;2022-11-15T04:21:39;3.30;99.90
11474;DHT22;5793;52.238;13.438;2022-11-15T04:24:24;3.30;99.90
11474;DHT22;5793;52.238;13.438;2022-11-15T04:26:52;3.20;99.90
11474;DHT22;5793;52.238;13.438;2022-11-15T04:29:20;3.20;99.90
11474;DHT22;5793;52.238;13.438;2022-11-15T04:32:03;3.30;99.90
11474;DHT22;5793;52.238;13.438;2022-11-15T04:34:31;3.20;99.90
11474;DHT22;5793;52.238;13.438;2022-11-15T04:37:01;3.30;99.90
11474;DHT22;5793;52.238;13.438;2022-11-15T04:39:43;3.30;99.90
11474;DHT22;5793;52.238;13.438;2022-11-15T04:42:11;3.30;99.90
11474;DHT22;5793;52.238;13.438;2022-11-15T04:44:38;3.30;99.90
11474;DHT22;5793;52.238;13.438;2022-11-15T04:47:06;3.20;99.90
11474;DHT22;5793;52.238;13.438;2022-11-15T04:49:34;3.20;99.90
11474;DHT22;5793;52.238;13.438;2022-11-15T04:52:03;3.10;99.90
11474;DHT22;5793;52.238;13.438;2022-11-15T04:54:31;3.00;99.90
11474;DHT22;5793;52.238;13.438;2022-11-15T04:56:59;2.90;99.90
11474;DHT22;5793;52.238;13.438;2022-11-15T04:59:26;2.90;99.90
11474;DHT22;5793;52.238;13.438;2022-11-15T05:01:54;3.00;99.90
11474;DHT22;5793;52.238;13.438;2022-11-15T05:04:22;2.80;99.90
11474;DHT22;5793;52.238;13.438;2022-11-15T05:06:50;2.70;99.90
11474;DHT22;5793;52.238;13.438;2022-11-15T05:09:20;2.60;99.90
11474;DHT22;5793;52.238;13.438;2022-11-15T05:11:48;2.50;99.90
11474;DHT22;5793;52.238;13.438;2022-11-15T05:14:16;2.40;99.90
11474;DHT22;5793;52.238;13.438;2022-11-15T05:16:44;2.40;99.90
11474;DHT22;5793;52.238;13.438;2022-11-15T05:19:12;2.40;99.90
11474;DHT22;5793;52.238;13.438;2022-11-15T05:21:40;2.40;99.90
11474;DHT22;5793;52.238;13.438;2022-11-15T05:24:09;2.30;99.90
11474;DHT22;5793;52.238;13.438;2022-11-15T05:26:38;2.30;99.90
11474;DHT22;5793;52.238;13.438;2022-11-15T05:29:08;2.30;99.90
11474;DHT22;5793;52.238;13.438;2022-11-15T05:31:39;2.40;99.90
11474;DHT22;5793;52.238;13.438;2022-11-15T05:34:08;2.50;99.90
11474;DHT22;5793;52.238;13.438;2022-11-15T05:36:38;2.50;99.90
11474;DHT22;5793;52.238;13.438;2022-11-15T05:39:08;2.50;99.90
11474;DHT22;5793;52.238;13.438;2022-11-15T05:41:41;2.50;99.90
11474;DHT22;5793;52.238;13.438;2022-11-15T05:44:11;2.50;99.90
11474;DHT22;5793;52.238;13.438;2022-11-15T05:46:42;2.40;99.90
11474;DHT22;5793;52.238;13.438;2022-11-15T05:49:12;2.40;99.90
11474;DHT22;5793;52.238;13.438;2022-11-15T05:51:43;2.30;99.90
11474;DHT22;5793;52.238;13.438;2022-11-15T05:54:11;2.40;99.90
11474;DHT22;5793;52.238;13.438;2022-11-15T05:56:41;2.40;99.90
11474;DHT22;5793;52.238;13.438;2022-11-15T05:59:09;2.30;99.90
11474;DHT22;5793;52.238;13.438;2022-11-15T06:01:38;2.40;99.90
11474;DHT22;5793;52.238;13.438;2022-11-15T06:04:07;2.30;99.90
11474;DHT22;5793;52.238;13.438;2022-11-15T06:06:35;2.30;99.90
11474;DHT22;5793;52.238;13.438;2022-11-15T06:09:03;2.20;99.90
11474;DHT22;5793;52.238;13.438;2022-11-15T06:11:31;2.20;99.90
11474;DHT22;5793;52.238;13.438;2022-11-15T06:14:00;2.20;99.90
11474;DHT22;5793;52.238;13.438;2022-11-15T06:16:28;2.40;99.90
11474;DHT22;5793;52.238;13.438;2022-11-15T06:18:56;2.50;99.90
11474;DHT22;5793;52.238;13.438;2022-11-15T06:21:24;2.50;99.90
11474;DHT22;5793;52.238;13.438;2022-11-15T06:23:54;2.40;99.90
11474;DHT22;5793;52.238;13.438;2022-11-15T06:26:22;2.30;99.90
11474;DHT22;5793;52.238;13.438;2022-11-15T06:28:50;2.20;99.90
11474;DHT22;5793;52.238;13.438;2022-11-15T06:31:19;2.20;99.90
11474;DHT22;5793;52.238;13.438;2022-11-15T06:33:47;2.20;99.90
11474;DHT22;5793;52.238;13.438;2022-11-15T06:36:16;2.10;99.90
11474;DHT22;5793;52.238;13.438;2022-11-15T06:38:44;2.10;99.90
11474;DHT22;5793;52.238;13.438;2022-11-15T06:41:13;2.10;99.90
11474;DHT22;5793;52.238;13.438;2022-11-15T06:43:41;2.10;99.90
11474;DHT22;5793;52.238;13.438;2022-11-15T06:46:10;2.10;99.90
11474;DHT22;5793;52.238;13.438;2022-11-15T06:48:39;2.10;99.90
11474;DHT22;5793;52.238;13.438;2022-11-15T06:51:07;2.20;99.90
11474;DHT22;5793;52.238;13.438;2022-11-15T06:53:35;2.30;99.90
11474;DHT22;5793;52.238;13.438;2022-11-15T06:56:04;2.40;99.90
11474;DHT22;5793;52.238;13.438;2022-11-15T06:58:33;2.50;99.90
11474;DHT22;5793;52.238;13.438;2022-11-15T07:01:03;2.60;99.90
11474;DHT22;5793;52.238;13.438;2022-11-15T07:03:31;2.60;99.90
11474;DHT22;5793;52.238;13.438;2022-11-15T07:06:03;2.70;99.90
11474;DHT22;5793;52.238;13.438;2022-11-15T07:08:34;2.70;99.90
11474;DHT22;5793;52.238;13.438;2022-11-15T07:11:04;2.70;99.90
11474;DHT22;5793;52.238;13.438;2022-11-15T07:13:32;2.80;99.90
11474;DHT22;5793;52.238;13.438;2022-11-15T07:16:03;2.80;99.90
11474;DHT22;5793;52.238;13.438;2022-11-15T07:18:31;2.80;99.90
11474;DHT22;5793;52.238;13.438;2022-11-15T07:21:03;2.90;99.90
11474;DHT22;5793;52.238;13.438;2022-11-15T07:23:32;2.90;99.90
11474;DHT22;5793;52.238;13.438;2022-11-15T07:26:00;3.00;99.90
11474;DHT22;5793;52.238;13.438;2022-11-15T07:28:28;3.10;99.90
11474;DHT22;5793;52.238;13.438;2022-11-15T07:30:56;3.20;99.90
11474;DHT22;5793;52.238;13.438;2022-11-15T07:33:24;3.20;99.90
11474;DHT22;5793;52.238;13.438;2022-11-15T07:35:52;3.30;99.90
11474;DHT22;5793;52.238;13.438;2022-11-15T07:38:21;3.40;99.90
11474;DHT22;5793;52.238;13.438;2022-11-15T07:40:56;3.50;99.90
11474;DHT22;5793;52.238;13.438;2022-11-15T07:43:24;3.60;99.90
11474;DHT22;5793;52.238;13.438;2022-11-15T07:45:55;3.80;99.90
11474;DHT22;5793;52.238;13.438;2022-11-15T07:48:25;3.90;99.90
11474;DHT22;5793;52.238;13.438;2022-11-15T07:51:11;4.00;99.90
11474;DHT22;5793;52.238;13.438;2022-11-15T07:53:42;4.10;99.90
11474;DHT22;5793;52.238;13.438;2022-11-15T07:56:10;4.20;99.90
11474;DHT22;5793;52.238;13.438;2022-11-15T07:58:38;4.30;99.90
11474;DHT22;5793;52.238;13.438;2022-11-15T08:01:10;4.40;99.90
11474;DHT22;5793;52.238;13.438;2022-11-15T08:03:39;4.70;99.90
11474;DHT22;5793;52.238;13.438;2022-11-15T08:06:07;4.80;99.90
11474;DHT22;5793;52.238;13.438;2022-11-15T08:08:35;5.00;99.90
11474;DHT22;5793;52.238;13.438;2022-11-15T08:11:04;5.20;99.90
11474;DHT22;5793;52.238;13.438;2022-11-15T08:13:32;5.40;99.90
11474;DHT22;5793;52.238;13.438;2022-11-15T08:16:02;5.50;99.90
11474;DHT22;5793;52.238;13.438;2022-11-15T08:18:32;5.70;99.90
11474;DHT22;5793;52.238;13.438;2022-11-15T08:21:00;5.70;99.90
11474;DHT22;5793;52.238;13.438;2022-11-15T08:23:28;5.90;99.90
11474;DHT22;5793;52.238;13.438;2022-11-15T08:26:01;6.00;99.90
11474;DHT22;5793;52.238;13.438;2022-11-15T08:28:31;6.20;99.90
11474;DHT22;5793;52.238;13.438;2022-11-15T08:30:59;6.50;99.90
11474;DHT22;5793;52.238;13.438;2022-11-15T08:33:27;6.70;99.90
11474;DHT22;5793;52.238;13.438;2022-11-15T08:35:57;6.90;99.90
11474;DHT22;5793;52.238;13.438;2022-11-15T08:38:25;7.00;99.90
11474;DHT22;5793;52.238;13.438;2022-11-15T08:40:58;7.10;99.90
11474;DHT22;5793;52.238;13.438;2022-11-15T08:43:27;7.30;99.90
11474;DHT22;5793;52.238;13.438;2022-11-15T08:45:57;7.40;99.90
11474;DHT22;5793;52.238;13.438;2022-11-15T08:48:25;7.60;99.90
11474;DHT22;5793;52.238;13.438;2022-11-15T08:50:53;7.80;99.90
11474;DHT22;5793;52.238;13.438;2022-11-15T08:53:22;8.00;99.90
11474;DHT22;5793;52.238;13.438;2022-11-15T08:55:49;8.10;99.90
11474;DHT22;5793;52.238;13.438;2022-11-15T08:58:17;8.30;99.90
11474;DHT22;5793;52.238;13.438;2022-11-15T09:00:45;8.40;99.90
11474;DHT22;5793;52.238;13.438;2022-11-15T09:03:14;8.60;99.90
11474;DHT22;5793;52.238;13.438;2022-11-15T09:05:42;8.80;99.90
11474;DHT22;5793;52.238;13.438;2022-11-15T09:08:10;8.80;99.90
11474;DHT22;5793;52.238;13.438;2022-11-15T09:11:03;8.90;99.90
11474;DHT22;5793;52.238;13.438;2022-11-15T09:13:31;9.10;99.90
11474;DHT22;5793;52.238;13.438;2022-11-15T09:15:59;9.20;99.90
11474;DHT22;5793;52.238;13.438;2022-11-15T09:18:29;9.40;99.90
11474;DHT22;5793;52.238;13.438;2022-11-15T09:20:58;9.50;99.90
11474;DHT22;5793;52.238;13.438;2022-11-15T09:23:26;9.70;99.90
11474;DHT22;5793;52.238;13.438;2022-11-15T09:25:59;9.90;99.90
11474;DHT22;5793;52.238;13.438;2022-11-15T09:28:27;10.00;99.90
11474;DHT22;5793;52.238;13.438;2022-11-15T09:30:57;10.10;99.90
11474;DHT22;5793;52.238;13.438;2022-11-15T09:33:27;10.20;99.90
11474;DHT22;5793;52.238;13.438;2022-11-15T09:36:01;10.30;99.90
11474;DHT22;5793;52.238;13.438;2022-11-15T09:38:29;10.50;99.90
11474;DHT22;5793;52.238;13.438;2022-11-15T09:41:28;10.70;99.90
11474;DHT22;5793;52.238;13.438;2022-11-15T09:44:14;11.60;99.90
11474;DHT22;5793;52.238;13.438;2022-11-15T09:46:58;12.70;99.90
11474;DHT22;5793;52.238;13.438;2022-11-15T09:49:29;14.40;99.90
11474;DHT22;5793;52.238;13.438;2022-11-15T09:51:59;16.40;99.90
11474;DHT22;5793;52.238;13.438;2022-11-15T09:54:29;18.50;99.90
11474;DHT22;5793;52.238;13.438;2022-11-15T09:57:21;20.50;99.90
11474;DHT22;5793;52.238;13.438;2022-11-15T09:59:59;20.80;99.90
11474;DHT22;5793;52.238;13.438;2022-11-15T10:03:02;21.30;99.10
11474;DHT22;5793;52.238;13.438;2022-11-15T10:05:36;21.80;96.20
11474;DHT22;5793;52.238;13.438;2022-11-15T10:08:21;22.60;93.10
11474;DHT22;5793;52.238;13.438;2022-11-15T10:10:54;23.20;89.70
11474;DHT22;5793;52.238;13.438;2022-11-15T10:13:44;23.00;87.30
11474;DHT22;5793;52.238;13.438;2022-11-15T10:19:18;21.00;90.80
11474;DHT22;5793;52.238;13.438;2022-11-15T10:22:00;20.40;92.40
11474;DHT22;5793;52.238;13.438;2022-11-15T10:24:35;19.70;93.40
11474;DHT22;5793;52.238;13.438;2022-11-15T10:27:09;18.70;97.50
11474;DHT22;5793;52.238;13.438;2022-11-15T10:29:43;17.70;99.90
11474;DHT22;5793;52.238;13.438;2022-11-15T10:32:11;16.70;99.90
11474;DHT22;5793;52.238;13.438;2022-11-15T10:34:40;15.60;99.90
11474;DHT22;5793;52.238;13.438;2022-11-15T10:37:08;15.00;99.90
11474;DHT22;5793;52.238;13.438;2022-11-15T10:39:37;14.60;99.90
11474;DHT22;5793;52.238;13.438;2022-11-15T10:42:16;14.30;99.90
11474;DHT22;5793;52.238;13.438;2022-11-15T10:44:45;14.10;99.90
11474;DHT22;5793;52.238;13.438;2022-11-15T10:47:25;13.90;99.90
11474;DHT22;5793;52.238;13.438;2022-11-15T10:49:59;13.90;99.90
11474;DHT22;5793;52.238;13.438;2022-11-15T10:52:28;14.00;99.90
11474;DHT22;5793;52.238;13.438;2022-11-15T10:55:01;14.00;99.90
11474;DHT22;5793;52.238;13.438;2022-11-15T10:57:32;14.10;99.90
11474;DHT22;5793;52.238;13.438;2022-11-15T11:00:04;14.10;99.90
11474;DHT22;5793;52.238;13.438;2022-11-15T11:02:35;14.20;99.90
11474;DHT22;5793;52.238;13.438;2022-11-15T11:05:05;14.30;99.90
11474;DHT22;5793;52.238;13.438;2022-11-15T11:07:34;14.40;99.90
11474;DHT22;5793;52.238;13.438;2022-11-15T11:10:17;14.40;99.90
11474;DHT22;5793;52.238;13.438;2022-11-15T11:13:13;14.50;99.90
11474;DHT22;5793;52.238;13.438;2022-11-15T11:15:43;14.60;99.90
11474;DHT22;5793;52.238;13.438;2022-11-15T11:18:18;14.70;99.90
11474;DHT22;5793;52.238;13.438;2022-11-15T11:20:49;14.80;99.90
11474;DHT22;5793;52.238;13.438;2022-11-15T11:23:38;14.90;99.90
11474;DHT22;5793;52.238;13.438;2022-11-15T11:26:24;15.00;99.90
11474;DHT22;5793;52.238;13.438;2022-11-15T11:29:01;15.00;99.90
11474;DHT22;5793;52.238;13.438;2022-11-15T11:31:34;15.10;99.90
11474;DHT22;5793;52.238;13.438;2022-11-15T11:34:10;15.20;99.90
11474;DHT22;5793;52.238;13.438;2022-11-15T11:36:47;15.30;99.90
11474;DHT22;5793;52.238;13.438;2022-11-15T11:39:23;15.40;99.90
11474;DHT22;5793;52.238;13.438;2022-11-15T11:42:10;15.50;99.90
11474;DHT22;5793;52.238;13.438;2022-11-15T11:44:48;15.60;99.90
11474;DHT22;5793;52.238;13.438;2022-11-15T11:47:23;15.60;99.90
11474;DHT22;5793;52.238;13.438;2022-11-15T11:49:54;15.60;99.90
11474;DHT22;5793;52.238;13.438;2022-11-15T11:52:28;15.70;99.90
11474;DHT22;5793;52.238;13.438;2022-11-15T11:55:02;15.70;99.90
11474;DHT22;5793;52.238;13.438;2022-11-15T11:57:39;15.70;99.90
11474;DHT22;5793;52.238;13.438;2022-11-15T12:00:18;15.80;99.90
11474;DHT22;5793;52.238;13.438;2022-11-15T12:02:50;15.90;99.90
11474;DHT22;5793;52.238;13.438;2022-11-15T12:05:27;15.90;99.90
11474;DHT22;5793;52.238;13.438;2022-11-15T12:08:01;16.00;99.90
11474;DHT22;5793;52.238;13.438;2022-11-15T12:10:33;16.10;99.90
11474;DHT22;5793;52.238;13.438;2022-11-15T12:13:07;16.20;99.90
11474;DHT22;5793;52.238;13.438;2022-11-15T12:15:40;16.40;99.90
11474;DHT22;5793;52.238;13.438;2022-11-15T12:18:13;16.50;99.90
11474;DHT22;5793;52.238;13.438;2022-11-15T12:20:51;16.50;99.90
11474;DHT22;5793;52.238;13.438;2022-11-15T12:23:24;16.60;99.90
11474;DHT22;5793;52.238;13.438;2022-11-15T12:25:58;16.60;99.90
11474;DHT22;5793;52.238;13.438;2022-11-15T12:28:35;16.60;99.90
11474;DHT22;5793;52.238;13.438;2022-11-15T12:31:31;16.50;99.90
11474;DHT22;5793;52.238;13.438;2022-11-15T12:34:05;16.40;99.90
11474;DHT22;5793;52.238;13.438;2022-11-15T12:36:43;16.40;99.90
11474;DHT22;5793;52.238;13.438;2022-11-15T12:39:12;16.30;99.90
11474;DHT22;5793;52.238;13.438;2022-11-15T12:41:41;16.30;99.90
11474;DHT22;5793;52.238;13.438;2022-11-15T12:44:12;16.40;99.90
11474;DHT22;5793;52.238;13.438;2022-11-15T12:47:03;16.30;99.90
11474;DHT22;5793;52.238;13.438;2022-11-15T12:49:47;16.40;99.90
11474;DHT22;5793;52.238;13.438;2022-11-15T12:52:16;16.40;99.90
11474;DHT22;5793;52.238;13.438;2022-11-15T12:54:58;16.40;99.90
11474;DHT22;5793;52.238;13.438;2022-11-15T12:57:34;16.40;99.90
11474;DHT22;5793;52.238;13.438;2022-11-15T13:03:25;16.60;99.90
11474;DHT22;5793;52.238;13.438;2022-11-15T13:05:58;16.70;99.90
11474;DHT22;5793;52.238;13.438;2022-11-15T13:08:48;16.50;99.90
11474;DHT22;5793;52.238;13.438;2022-11-15T13:14:48;16.60;99.90
11474;DHT22;5793;52.238;13.438;2022-11-15T13:17:37;16.50;99.90
11474;DHT22;5793;52.238;13.438;2022-11-15T13:20:28;16.60;99.90
11474;DHT22;5793;52.238;13.438;2022-11-15T13:23:08;16.50;99.90
11474;DHT22;5793;52.238;13.438;2022-11-15T13:26:03;16.50;99.90
11474;DHT22;5793;52.238;13.438;2022-11-15T13:28:36;16.50;99.90
11474;DHT22;5793;52.238;13.438;2022-11-15T13:31:19;16.40;99.90
11474;DHT22;5793;52.238;13.438;2022-11-15T13:33:51;16.30;99.90
11474;DHT22;5793;52.238;13.438;2022-11-15T13:36:21;16.10;99.90
11474;DHT22;5793;52.238;13.438;2022-11-15T13:38:58;16.00;99.90
11474;DHT22;5793;52.238;13.438;2022-11-15T13:41:28;15.70;99.90
11474;DHT22;5793;52.238;13.438;2022-11-15T13:43:57;15.40;99.90
11474;DHT22;5793;52.238;13.438;2022-11-15T13:46:27;15.20;99.90
11474;DHT22;5793;52.238;13.438;2022-11-15T13:48:59;15.00;99.90
11474;DHT22;5793;52.238;13.438;2022-11-15T13:51:33;14.90;99.90
11474;DHT22;5793;52.238;13.438;2022-11-15T13:54:07;14.90;99.90
11474;DHT22;5793;52.238;13.438;2022-11-15T13:56:36;14.80;99.90
11474;DHT22;5793;52.238;13.438;2022-11-15T13:59:09;14.60;99.90
11474;DHT22;5793;52.238;13.438;2022-11-15T14:01:42;14.50;99.90
11474;DHT22;5793;52.238;13.438;2022-11-15T14:04:13;14.50;99.90
11474;DHT22;5793;52.238;13.438;2022-11-15T14:06:48;14.40;99.90
11474;DHT22;5793;52.238;13.438;2022-11-15T14:09:31;14.30;99.90
11474;DHT22;5793;52.238;13.438;2022-11-15T14:12:02;14.20;99.90
11474;DHT22;5793;52.238;13.438;2022-11-15T14:14:30;14.20;99.90
11474;DHT22;5793;52.238;13.438;2022-11-15T14:16:59;14.00;99.90
11474;DHT22;5793;52.238;13.438;2022-11-15T14:19:37;14.00;99.90
11474;DHT22;5793;52.238;13.438;2022-11-15T14:22:14;13.80;99.90
11474;DHT22;5793;52.238;13.438;2022-11-15T14:24:44;13.70;99.90
11474;DHT22;5793;52.238;13.438;2022-11-15T14:27:23;13.70;99.90
11474;DHT22;5793;52.238;13.438;2022-11-15T14:29:52;13.50;99.90
11474;DHT22;5793;52.238;13.438;2022-11-15T14:32:22;13.40;99.90
11474;DHT22;5793;52.238;13.438;2022-11-15T14:34:56;13.40;99.90
11474;DHT22;5793;52.238;13.438;2022-11-15T14:37:26;13.30;99.90
11474;DHT22;5793;52.238;13.438;2022-11-15T14:39:54;13.20;99.90
11474;DHT22;5793;52.238;13.438;2022-11-15T14:42:23;12.90;99.90
11474;DHT22;5793;52.238;13.438;2022-11-15T14:44:52;12.80;99.90
11474;DHT22;5793;52.238;13.438;2022-11-15T14:47:20;12.70;99.90
11474;DHT22;5793;52.238;13.438;2022-11-15T14:49:48;12.60;99.90
11474;DHT22;5793;52.238;13.438;2022-11-15T14:52:27;12.50;99.90
11474;DHT22;5793;52.238;13.438;2022-11-15T14:54:59;12.40;99.90
11474;DHT22;5793;52.238;13.438;2022-11-15T14:57:28;12.30;99.90
11474;DHT22;5793;52.238;13.438;2022-11-15T14:59:56;12.10;99.90
11474;DHT22;5793;52.238;13.438;2022-11-15T15:02:26;11.90;99.90
11474;DHT22;5793;52.238;13.438;2022-11-15T15:04:54;11.80;99.90
11474;DHT22;5793;52.238;13.438;2022-11-15T15:07:22;11.60;99.90
11474;DHT22;5793;52.238;13.438;2022-11-15T15:09:51;11.40;99.90
11474;DHT22;5793;52.238;13.438;2022-11-15T15:12:40;11.20;99.90
11474;DHT22;5793;52.238;13.438;2022-11-15T15:15:13;11.00;99.90
11474;DHT22;5793;52.238;13.438;2022-11-15T15:17:41;11.10;99.90
11474;DHT22;5793;52.238;13.438;2022-11-15T15:20:10;11.00;99.90
11474;DHT22;5793;52.238;13.438;2022-11-15T15:22:38;10.80;99.90
11474;DHT22;5793;52.238;13.438;2022-11-15T15:25:22;10.70;99.90
11474;DHT22;5793;52.238;13.438;2022-11-15T15:27:52;10.70;99.90
11474;DHT22;5793;52.238;13.438;2022-11-15T15:30:21;10.60;99.90
11474;DHT22;5793;52.238;13.438;2022-11-15T15:32:49;10.50;99.90
11474;DHT22;5793;52.238;13.438;2022-11-15T15:35:18;10.50;99.90
11474;DHT22;5793;52.238;13.438;2022-11-15T15:37:47;10.40;99.90
11474;DHT22;5793;52.238;13.438;2022-11-15T15:40:17;10.00;99.90
11474;DHT22;5793;52.238;13.438;2022-11-15T15:42:48;9.90;99.90
11474;DHT22;5793;52.238;13.438;2022-11-15T15:45:17;9.70;99.90
11474;DHT22;5793;52.238;13.438;2022-11-15T15:47:46;9.50;99.90
11474;DHT22;5793;52.238;13.438;2022-11-15T15:50:22;9.40;99.90
11474;DHT22;5793;52.238;13.438;2022-11-15T15:52:51;9.30;99.90
11474;DHT22;5793;52.238;13.438;2022-11-15T15:55:19;9.10;99.90
11474;DHT22;5793;52.238;13.438;2022-11-15T15:57:49;9.00;99.90
11474;DHT22;5793;52.238;13.438;2022-11-15T16:00:17;8.80;99.90
11474;DHT22;5793;52.238;13.438;2022-11-15T16:02:46;8.80;99.90
11474;DHT22;5793;52.238;13.438;2022-11-15T16:05:14;8.70;99.90
11474;DHT22;5793;52.238;13.438;2022-11-15T16:07:42;8.60;99.90
11474;DHT22;5793;52.238;13.438;2022-11-15T16:10:19;8.60;99.90
11474;DHT22;5793;52.238;13.438;2022-11-15T16:12:48;8.60;99.90
11474;DHT22;5793;52.238;13.438;2022-11-15T16:15:17;8.50;99.90
11474;DHT22;5793;52.238;13.438;2022-11-15T16:17:48;8.40;99.90
11474;DHT22;5793;52.238;13.438;2022-11-15T16:20:35;8.40;99.90
11474;DHT22;5793;52.238;13.438;2022-11-15T16:23:05;8.20;99.90